sensor_id;sensor_type;location;lat;lon;timestamp;P1;durP1;ratioP1;P2;durP2;ratioP2
17372;SDS011;8803;48.116;11.590;2024-02-14T00:02:52;2.20;;;1.50;;
17372;SDS011;8803;48.116;11.590;2024-02-14T00:04:57;2.40;;;1.70;;
17372;SDS011;8803;48.116;11.590;2024-02-14T00:07:10;1.73;;;1.50;;
17372;SDS011;8803;48.116;11.590;2024-02-14T00:09:16;2.13;;;1.50;;
17372;SDS011;8803;48.116;11.590;2024-02-14T00:11:29;2.07;;;1.50;;
17372;SDS011;8803;48.116;11.590;2024-02-14T00:13:34;1.83;;;1.40;;
17372;SDS011;8803;48.116;11.590;2024-02-14T00:15:47;2.43;;;1.73;;
17372;SDS011;8803;48.116;11.590;2024-02-14T00:17:52;1.70;;;1.50;;
17372;SDS011;8803;48.116;11.590;2024-02-14T00:20:08;1.50;;;1.40;;
17372;SDS011;8803;48.116;11.590;2024-02-14T00:22:14;3.00;;;1.37;;
17372;SDS011;8803;48.116;11.590;2024-02-14T00:24:27;2.57;;;1.40;;
17372;SDS011;8803;48.116;11.590;2024-02-14T00:26:33;2.87;;;1.37;;
17372;SDS011;8803;48.116;11.590;2024-02-14T00:28:39;1.97;;;1.37;;
17372;SDS011;8803;48.116;11.590;2024-02-14T00:30:52;1.87;;;1.33;;
17372;SDS011;8803;48.116;11.590;2024-02-14T00:32:57;3.00;;;1.77;;
17372;SDS011;8803;48.116;11.590;2024-02-14T00:35:10;2.13;;;1.27;;
17372;SDS011;8803;48.116;11.590;2024-02-14T00:37:15;2.07;;;1.57;;
17372;SDS011;8803;48.116;11.590;2024-02-14T00:39:28;1.30;;;1.20;;
17372;SDS011;8803;48.116;11.590;2024-02-14T00:41:33;1.67;;;1.30;;
17372;SDS011;8803;48.116;11.590;2024-02-14T00:43:46;1.60;;;1.20;;
17372;SDS011;8803;48.116;11.590;2024-02-14T00:45:50;2.33;;;1.37;;
17372;SDS011;8803;48.116;11.590;2024-02-14T00:48:05;1.83;;;1.33;;
17372;SDS011;8803;48.116;11.590;2024-02-14T00:50:11;2.50;;;1.47;;
17372;SDS011;8803;48.116;11.590;2024-02-14T00:52:24;1.53;;;1.20;;
17372;SDS011;8803;48.116;11.590;2024-02-14T00:54:29;2.60;;;1.30;;
17372;SDS011;8803;48.116;11.590;2024-02-14T00:56:33;1.73;;;1.23;;
17372;SDS011;8803;48.116;11.590;2024-02-14T00:58:47;1.80;;;1.27;;
17372;SDS011;8803;48.116;11.590;2024-02-14T01:03:06;1.23;;;1.13;;
17372;SDS011;8803;48.116;11.590;2024-02-14T01:05:12;2.47;;;1.60;;
17372;SDS011;8803;48.116;11.590;2024-02-14T01:07:30;3.70;;;1.10;;
17372;SDS011;8803;48.116;11.590;2024-02-14T01:09:34;2.23;;;1.37;;
17372;SDS011;8803;48.116;11.590;2024-02-14T01:11:47;2.43;;;1.30;;
17372;SDS011;8803;48.116;11.590;2024-02-14T01:13:54;1.63;;;1.10;;
17372;SDS011;8803;48.116;11.590;2024-02-14T01:16:07;1.53;;;1.17;;
17372;SDS011;8803;48.116;11.590;2024-02-14T01:20:24;2.17;;;1.00;;
17372;SDS011;8803;48.116;11.590;2024-02-14T01:22:29;1.67;;;1.37;;
17372;SDS011;8803;48.116;11.590;2024-02-14T01:24:42;1.53;;;1.37;;
17372;SDS011;8803;48.116;11.590;2024-02-14T01:26:47;1.83;;;1.13;;
17372;SDS011;8803;48.116;11.590;2024-02-14T01:29:00;3.60;;;1.23;;
17372;SDS011;8803;48.116;11.590;2024-02-14T01:31:07;1.33;;;1.17;;
17372;SDS011;8803;48.116;11.590;2024-02-14T01:33:22;2.60;;;1.10;;
17372;SDS011;8803;48.116;11.590;2024-02-14T01:35:27;1.23;;;0.80;;
17372;SDS011;8803;48.116;11.590;2024-02-14T01:37:40;2.70;;;1.27;;
17372;SDS011;8803;48.116;11.590;2024-02-14T01:39:46;1.00;;;0.80;;
17372;SDS011;8803;48.116;11.590;2024-02-14T01:41:59;1.53;;;0.93;;
17372;SDS011;8803;48.116;11.590;2024-02-14T01:44:07;1.10;;;1.00;;
17372;SDS011;8803;48.116;11.590;2024-02-14T01:46:20;2.23;;;1.17;;
17372;SDS011;8803;48.116;11.590;2024-02-14T01:48:25;1.87;;;1.10;;
17372;SDS011;8803;48.116;11.590;2024-02-14T01:50:30;1.33;;;1.23;;
17372;SDS011;8803;48.116;11.590;2024-02-14T01:52:43;3.40;;;1.47;;
17372;SDS011;8803;48.116;11.590;2024-02-14T01:54:48;2.67;;;1.30;;
17372;SDS011;8803;48.116;11.590;2024-02-14T01:57:03;1.67;;;1.00;;
17372;SDS011;8803;48.116;11.590;2024-02-14T01:59:10;1.70;;;1.07;;
17372;SDS011;8803;48.116;11.590;2024-02-14T02:01:23;1.63;;;1.30;;
17372;SDS011;8803;48.116;11.590;2024-02-14T02:03:29;1.60;;;1.30;;
17372;SDS011;8803;48.116;11.590;2024-02-14T02:05:42;1.00;;;0.90;;
17372;SDS011;8803;48.116;11.590;2024-02-14T02:07:47;2.17;;;1.10;;
17372;SDS011;8803;48.116;11.590;2024-02-14T02:10:01;1.80;;;1.13;;
17372;SDS011;8803;48.116;11.590;2024-02-14T02:12:12;1.30;;;1.03;;
17372;SDS011;8803;48.116;11.590;2024-02-14T02:14:26;2.27;;;0.90;;
17372;SDS011;8803;48.116;11.590;2024-02-14T02:16:40;1.07;;;0.97;;
17372;SDS011;8803;48.116;11.590;2024-02-14T02:18:47;1.17;;;1.07;;
17372;SDS011;8803;48.116;11.590;2024-02-14T02:21:01;1.30;;;1.10;;
17372;SDS011;8803;48.116;11.590;2024-02-14T02:23:09;1.73;;;1.10;;
17372;SDS011;8803;48.116;11.590;2024-02-14T02:25:23;2.97;;;1.47;;
17372;SDS011;8803;48.116;11.590;2024-02-14T02:27:29;1.20;;;1.00;;
17372;SDS011;8803;48.116;11.590;2024-02-14T02:29:42;1.83;;;1.17;;
17372;SDS011;8803;48.116;11.590;2024-02-14T02:31:47;2.33;;;1.10;;
17372;SDS011;8803;48.116;11.590;2024-02-14T02:34:00;1.40;;;1.07;;
17372;SDS011;8803;48.116;11.590;2024-02-14T02:36:08;1.23;;;1.10;;
17372;SDS011;8803;48.116;11.590;2024-02-14T02:38:21;1.53;;;1.00;;
17372;SDS011;8803;48.116;11.590;2024-02-14T02:40:25;1.20;;;0.90;;
17372;SDS011;8803;48.116;11.590;2024-02-14T02:42:38;1.03;;;0.80;;
17372;SDS011;8803;48.116;11.590;2024-02-14T02:44:45;2.93;;;1.10;;
17372;SDS011;8803;48.116;11.590;2024-02-14T02:46:50;1.33;;;0.80;;
17372;SDS011;8803;48.116;11.590;2024-02-14T02:49:03;1.77;;;1.10;;
17372;SDS011;8803;48.116;11.590;2024-02-14T02:51:09;1.67;;;1.10;;
17372;SDS011;8803;48.116;11.590;2024-02-14T02:53:22;3.07;;;1.20;;
17372;SDS011;8803;48.116;11.590;2024-02-14T02:57:40;1.37;;;1.10;;
17372;SDS011;8803;48.116;11.590;2024-02-14T02:59:46;1.17;;;1.00;;
17372;SDS011;8803;48.116;11.590;2024-02-14T03:01:59;2.17;;;1.07;;
17372;SDS011;8803;48.116;11.590;2024-02-14T03:04:04;2.33;;;1.13;;
17372;SDS011;8803;48.116;11.590;2024-02-14T03:06:17;1.70;;;0.90;;
17372;SDS011;8803;48.116;11.590;2024-02-14T03:08:23;1.53;;;1.00;;
17372;SDS011;8803;48.116;11.590;2024-02-14T03:10:36;1.63;;;1.10;;
17372;SDS011;8803;48.116;11.590;2024-02-14T03:12:42;1.70;;;1.10;;
17372;SDS011;8803;48.116;11.590;2024-02-14T03:14:57;1.80;;;1.30;;
17372;SDS011;8803;48.116;11.590;2024-02-14T03:17:01;1.10;;;0.90;;
17372;SDS011;8803;48.116;11.590;2024-02-14T03:19:14;1.60;;;1.10;;
17372;SDS011;8803;48.116;11.590;2024-02-14T03:21:19;3.90;;;1.30;;
17372;SDS011;8803;48.116;11.590;2024-02-14T03:23:32;1.30;;;0.97;;
17372;SDS011;8803;48.116;11.590;2024-02-14T03:25:37;2.70;;;1.30;;
17372;SDS011;8803;48.116;11.590;2024-02-14T03:27:50;1.77;;;1.27;;
17372;SDS011;8803;48.116;11.590;2024-02-14T03:29:55;1.33;;;1.03;;
17372;SDS011;8803;48.116;11.590;2024-02-14T03:32:08;1.10;;;0.90;;
17372;SDS011;8803;48.116;11.590;2024-02-14T03:34:12;1.40;;;1.00;;
17372;SDS011;8803;48.116;11.590;2024-02-14T03:36:17;2.03;;;1.20;;
17372;SDS011;8803;48.116;11.590;2024-02-14T03:38:30;2.50;;;1.10;;
17372;SDS011;8803;48.116;11.590;2024-02-14T03:40:35;1.23;;;1.07;;
17372;SDS011;8803;48.116;11.590;2024-02-14T03:42:48;2.40;;;1.07;;
17372;SDS011;8803;48.116;11.590;2024-02-14T03:44:53;0.77;;;0.77;;
17372;SDS011;8803;48.116;11.590;2024-02-14T03:47:06;1.97;;;0.90;;
17372;SDS011;8803;48.116;11.590;2024-02-14T03:49:13;2.17;;;1.07;;
17372;SDS011;8803;48.116;11.590;2024-02-14T03:51:26;1.20;;;1.00;;
17372;SDS011;8803;48.116;11.590;2024-02-14T03:53:32;1.37;;;1.00;;
17372;SDS011;8803;48.116;11.590;2024-02-14T03:55:46;1.70;;;0.90;;
17372;SDS011;8803;48.116;11.590;2024-02-14T03:57:52;2.27;;;1.00;;
17372;SDS011;8803;48.116;11.590;2024-02-14T04:00:06;1.90;;;1.20;;
17372;SDS011;8803;48.116;11.590;2024-02-14T04:02:13;0.97;;;0.80;;
17372;SDS011;8803;48.116;11.590;2024-02-14T04:04:27;1.83;;;0.80;;
17372;SDS011;8803;48.116;11.590;2024-02-14T04:06:34;1.90;;;1.00;;
17372;SDS011;8803;48.116;11.590;2024-02-14T04:08:47;0.80;;;0.80;;
17372;SDS011;8803;48.116;11.590;2024-02-14T04:10:51;3.13;;;1.20;;
17372;SDS011;8803;48.116;11.590;2024-02-14T04:13:06;1.03;;;0.93;;
17372;SDS011;8803;48.116;11.590;2024-02-14T04:15:11;2.13;;;1.20;;
17372;SDS011;8803;48.116;11.590;2024-02-14T04:17:17;1.70;;;0.93;;
17372;SDS011;8803;48.116;11.590;2024-02-14T04:19:30;1.87;;;1.13;;
17372;SDS011;8803;48.116;11.590;2024-02-14T04:21:35;1.77;;;1.07;;
17372;SDS011;8803;48.116;11.590;2024-02-14T04:23:48;1.80;;;1.00;;
17372;SDS011;8803;48.116;11.590;2024-02-14T04:25:53;1.60;;;1.00;;
17372;SDS011;8803;48.116;11.590;2024-02-14T04:28:06;2.67;;;1.10;;
17372;SDS011;8803;48.116;11.590;2024-02-14T04:30:15;1.30;;;1.00;;
17372;SDS011;8803;48.116;11.590;2024-02-14T04:32:20;1.90;;;1.00;;
17372;SDS011;8803;48.116;11.590;2024-02-14T04:34:26;1.83;;;1.10;;
17372;SDS011;8803;48.116;11.590;2024-02-14T04:36:32;2.93;;;1.10;;
17372;SDS011;8803;48.116;11.590;2024-02-14T04:38:46;1.60;;;1.10;;
17372;SDS011;8803;48.116;11.590;2024-02-14T04:40:52;1.57;;;0.90;;
17372;SDS011;8803;48.116;11.590;2024-02-14T04:43:05;2.10;;;1.17;;
17372;SDS011;8803;48.116;11.590;2024-02-14T04:45:10;2.47;;;1.10;;
17372;SDS011;8803;48.116;11.590;2024-02-14T04:47:23;1.23;;;1.00;;
17372;SDS011;8803;48.116;11.590;2024-02-14T04:49:28;1.07;;;1.00;;
17372;SDS011;8803;48.116;11.590;2024-02-14T04:51:41;1.20;;;0.90;;
17372;SDS011;8803;48.116;11.590;2024-02-14T04:53:46;1.10;;;0.90;;
17372;SDS011;8803;48.116;11.590;2024-02-14T04:55:59;1.00;;;0.90;;
17372;SDS011;8803;48.116;11.590;2024-02-14T04:58:05;1.57;;;1.07;;
17372;SDS011;8803;48.116;11.590;2024-02-14T05:00:23;2.27;;;1.07;;
17372;SDS011;8803;48.116;11.590;2024-02-14T05:02:29;1.13;;;0.87;;
17372;SDS011;8803;48.116;11.590;2024-02-14T05:04:42;1.67;;;1.00;;
17372;SDS011;8803;48.116;11.590;2024-02-14T05:06:47;1.10;;;0.90;;
17372;SDS011;8803;48.116;11.590;2024-02-14T05:09:00;1.27;;;1.07;;
17372;SDS011;8803;48.116;11.590;2024-02-14T05:11:04;1.40;;;0.93;;
17372;SDS011;8803;48.116;11.590;2024-02-14T05:13:18;1.00;;;0.90;;
17372;SDS011;8803;48.116;11.590;2024-02-14T05:15:23;1.67;;;1.13;;
17372;SDS011;8803;48.116;11.590;2024-02-14T05:17:36;1.60;;;1.20;;
17372;SDS011;8803;48.116;11.590;2024-02-14T05:19:42;1.00;;;0.90;;
17372;SDS011;8803;48.116;11.590;2024-02-14T05:21:56;1.30;;;0.90;;
17372;SDS011;8803;48.116;11.590;2024-02-14T05:24:01;1.07;;;0.97;;
17372;SDS011;8803;48.116;11.590;2024-02-14T05:26:14;1.57;;;1.20;;
17372;SDS011;8803;48.116;11.590;2024-02-14T05:28:19;2.17;;;1.13;;
17372;SDS011;8803;48.116;11.590;2024-02-14T05:30:32;2.00;;;1.07;;
17372;SDS011;8803;48.116;11.590;2024-02-14T05:32:37;1.50;;;1.10;;
17372;SDS011;8803;48.116;11.590;2024-02-14T05:34:42;1.20;;;1.10;;
17372;SDS011;8803;48.116;11.590;2024-02-14T05:36:55;1.83;;;1.20;;
17372;SDS011;8803;48.116;11.590;2024-02-14T05:39:00;1.87;;;1.67;;
17372;SDS011;8803;48.116;11.590;2024-02-14T05:41:13;1.50;;;1.20;;
17372;SDS011;8803;48.116;11.590;2024-02-14T05:43:19;1.10;;;1.00;;
17372;SDS011;8803;48.116;11.590;2024-02-14T05:45:24;1.07;;;1.00;;
17372;SDS011;8803;48.116;11.590;2024-02-14T05:47:37;1.47;;;1.20;;
17372;SDS011;8803;48.116;11.590;2024-02-14T05:49:44;1.90;;;1.20;;
17372;SDS011;8803;48.116;11.590;2024-02-14T05:51:57;1.50;;;1.13;;
17372;SDS011;8803;48.116;11.590;2024-02-14T05:54:02;1.60;;;1.40;;
17372;SDS011;8803;48.116;11.590;2024-02-14T05:56:15;2.33;;;1.20;;
17372;SDS011;8803;48.116;11.590;2024-02-14T05:58:20;1.30;;;1.10;;
17372;SDS011;8803;48.116;11.590;2024-02-14T06:00:25;2.30;;;1.37;;
17372;SDS011;8803;48.116;11.590;2024-02-14T06:02:31;2.00;;;1.47;;
17372;SDS011;8803;48.116;11.590;2024-02-14T06:04:35;2.63;;;1.43;;
17372;SDS011;8803;48.116;11.590;2024-02-14T06:06:48;1.60;;;1.07;;
17372;SDS011;8803;48.116;11.590;2024-02-14T06:08:53;1.50;;;1.40;;
17372;SDS011;8803;48.116;11.590;2024-02-14T06:10:59;1.83;;;1.30;;
17372;SDS011;8803;48.116;11.590;2024-02-14T06:13:13;2.17;;;1.20;;
17372;SDS011;8803;48.116;11.590;2024-02-14T06:15:18;1.23;;;1.10;;
17372;SDS011;8803;48.116;11.590;2024-02-14T06:17:24;2.70;;;1.57;;
17372;SDS011;8803;48.116;11.590;2024-02-14T06:19:37;1.80;;;1.20;;
17372;SDS011;8803;48.116;11.590;2024-02-14T06:21:42;2.73;;;1.20;;
17372;SDS011;8803;48.116;11.590;2024-02-14T06:23:55;1.30;;;1.20;;
17372;SDS011;8803;48.116;11.590;2024-02-14T06:26:01;2.33;;;1.57;;
17372;SDS011;8803;48.116;11.590;2024-02-14T06:28:15;1.70;;;1.27;;
17372;SDS011;8803;48.116;11.590;2024-02-14T06:30:20;1.73;;;1.30;;
17372;SDS011;8803;48.116;11.590;2024-02-14T06:32:25;3.03;;;1.40;;
17372;SDS011;8803;48.116;11.590;2024-02-14T06:34:38;2.33;;;1.53;;
17372;SDS011;8803;48.116;11.590;2024-02-14T06:36:43;2.27;;;1.33;;
17372;SDS011;8803;48.116;11.590;2024-02-14T06:38:57;1.47;;;1.23;;
17372;SDS011;8803;48.116;11.590;2024-02-14T06:41:03;1.80;;;1.53;;
17372;SDS011;8803;48.116;11.590;2024-02-14T06:43:17;3.03;;;1.57;;
17372;SDS011;8803;48.116;11.590;2024-02-14T06:45:22;2.17;;;1.30;;
17372;SDS011;8803;48.116;11.590;2024-02-14T06:47:35;3.30;;;1.77;;
17372;SDS011;8803;48.116;11.590;2024-02-14T06:49:39;1.60;;;1.33;;
17372;SDS011;8803;48.116;11.590;2024-02-14T06:51:53;1.37;;;1.17;;
17372;SDS011;8803;48.116;11.590;2024-02-14T06:53:58;2.00;;;1.60;;
17372;SDS011;8803;48.116;11.590;2024-02-14T06:56:11;2.03;;;1.60;;
17372;SDS011;8803;48.116;11.590;2024-02-14T06:58:16;1.83;;;1.10;;
17372;SDS011;8803;48.116;11.590;2024-02-14T07:02:41;3.00;;;2.03;;
17372;SDS011;8803;48.116;11.590;2024-02-14T07:04:47;3.10;;;1.70;;
17372;SDS011;8803;48.116;11.590;2024-02-14T07:07:02;2.07;;;1.57;;
17372;SDS011;8803;48.116;11.590;2024-02-14T07:09:09;5.63;;;1.53;;
17372;SDS011;8803;48.116;11.590;2024-02-14T07:11:22;2.77;;;1.87;;
17372;SDS011;8803;48.116;11.590;2024-02-14T07:13:27;2.90;;;1.97;;
17372;SDS011;8803;48.116;11.590;2024-02-14T07:15:40;1.63;;;1.50;;
17372;SDS011;8803;48.116;11.590;2024-02-14T07:17:45;1.53;;;1.43;;
17372;SDS011;8803;48.116;11.590;2024-02-14T07:19:58;1.83;;;1.30;;
17372;SDS011;8803;48.116;11.590;2024-02-14T07:24:18;1.27;;;1.17;;
17372;SDS011;8803;48.116;11.590;2024-02-14T07:26:22;3.33;;;1.40;;
17372;SDS011;8803;48.116;11.590;2024-02-14T07:28:35;2.33;;;1.20;;
17372;SDS011;8803;48.116;11.590;2024-02-14T07:30:41;1.60;;;1.30;;
17372;SDS011;8803;48.116;11.590;2024-02-14T07:32:53;1.70;;;1.20;;
17372;SDS011;8803;48.116;11.590;2024-02-14T07:34:59;2.63;;;1.00;;
17372;SDS011;8803;48.116;11.590;2024-02-14T07:37:12;2.33;;;1.20;;
17372;SDS011;8803;48.116;11.590;2024-02-14T07:39:18;1.43;;;1.07;;
17372;SDS011;8803;48.116;11.590;2024-02-14T07:41:32;3.00;;;1.50;;
17372;SDS011;8803;48.116;11.590;2024-02-14T07:43:37;1.37;;;1.10;;
17372;SDS011;8803;48.116;11.590;2024-02-14T07:45:50;2.30;;;1.40;;
17372;SDS011;8803;48.116;11.590;2024-02-14T07:47:55;1.90;;;1.40;;
17372;SDS011;8803;48.116;11.590;2024-02-14T07:50:11;1.80;;;1.50;;
17372;SDS011;8803;48.116;11.590;2024-02-14T07:52:16;1.83;;;1.53;;
17372;SDS011;8803;48.116;11.590;2024-02-14T07:54:29;3.03;;;1.57;;
17372;SDS011;8803;48.116;11.590;2024-02-14T07:56:35;1.60;;;1.50;;
17372;SDS011;8803;48.116;11.590;2024-02-14T07:58:48;2.97;;;1.60;;
17372;SDS011;8803;48.116;11.590;2024-02-14T08:00:52;1.87;;;1.23;;
17372;SDS011;8803;48.116;11.590;2024-02-14T08:03:06;6.10;;;2.17;;
17372;SDS011;8803;48.116;11.590;2024-02-14T08:05:10;4.73;;;2.47;;
17372;SDS011;8803;48.116;11.590;2024-02-14T08:07:23;5.97;;;2.87;;
17372;SDS011;8803;48.116;11.590;2024-02-14T08:11:41;2.47;;;1.43;;
17372;SDS011;8803;48.116;11.590;2024-02-14T08:13:46;1.73;;;1.30;;
17372;SDS011;8803;48.116;11.590;2024-02-14T08:15:59;2.37;;;1.37;;
17372;SDS011;8803;48.116;11.590;2024-02-14T08:18:05;1.80;;;1.37;;
17372;SDS011;8803;48.116;11.590;2024-02-14T08:20:18;1.83;;;1.30;;
17372;SDS011;8803;48.116;11.590;2024-02-14T08:22:23;2.40;;;1.30;;
17372;SDS011;8803;48.116;11.590;2024-02-14T08:24:36;1.50;;;1.10;;
17372;SDS011;8803;48.116;11.590;2024-02-14T08:26:41;2.27;;;1.30;;
17372;SDS011;8803;48.116;11.590;2024-02-14T08:28:54;1.50;;;1.30;;
17372;SDS011;8803;48.116;11.590;2024-02-14T08:31:00;2.30;;;1.43;;
17372;SDS011;8803;48.116;11.590;2024-02-14T08:33:13;2.10;;;1.70;;
17372;SDS011;8803;48.116;11.590;2024-02-14T08:35:19;3.27;;;1.47;;
17372;SDS011;8803;48.116;11.590;2024-02-14T08:37:32;6.77;;;2.30;;
17372;SDS011;8803;48.116;11.590;2024-02-14T08:39:38;8.37;;;2.93;;
17372;SDS011;8803;48.116;11.590;2024-02-14T08:41:51;3.60;;;2.13;;
17372;SDS011;8803;48.116;11.590;2024-02-14T08:43:55;2.30;;;2.10;;
17372;SDS011;8803;48.116;11.590;2024-02-14T08:46:00;2.97;;;2.27;;
17372;SDS011;8803;48.116;11.590;2024-02-14T08:48:14;3.40;;;1.90;;
17372;SDS011;8803;48.116;11.590;2024-02-14T08:50:18;2.10;;;1.50;;
17372;SDS011;8803;48.116;11.590;2024-02-14T08:52:32;4.60;;;1.57;;
17372;SDS011;8803;48.116;11.590;2024-02-14T08:54:45;1.93;;;1.43;;
17372;SDS011;8803;48.116;11.590;2024-02-14T08:56:53;2.90;;;1.53;;
17372;SDS011;8803;48.116;11.590;2024-02-14T08:59:06;1.40;;;1.20;;
17372;SDS011;8803;48.116;11.590;2024-02-14T09:01:13;2.63;;;1.43;;
17372;SDS011;8803;48.116;11.590;2024-02-14T09:03:26;2.80;;;1.20;;
17372;SDS011;8803;48.116;11.590;2024-02-14T09:05:32;1.73;;;1.17;;
17372;SDS011;8803;48.116;11.590;2024-02-14T09:07:45;1.60;;;1.20;;
17372;SDS011;8803;48.116;11.590;2024-02-14T09:09:50;3.23;;;1.63;;
17372;SDS011;8803;48.116;11.590;2024-02-14T09:12:08;2.30;;;1.53;;
17372;SDS011;8803;48.116;11.590;2024-02-14T09:16:24;1.67;;;1.40;;
17372;SDS011;8803;48.116;11.590;2024-02-14T09:18:29;1.70;;;1.40;;
17372;SDS011;8803;48.116;11.590;2024-02-14T09:20:42;3.27;;;1.83;;
17372;SDS011;8803;48.116;11.590;2024-02-14T09:22:48;2.03;;;1.83;;
17372;SDS011;8803;48.116;11.590;2024-02-14T09:25:01;2.73;;;1.47;;
17372;SDS011;8803;48.116;11.590;2024-02-14T09:27:15;2.37;;;1.37;;
17372;SDS011;8803;48.116;11.590;2024-02-14T09:29:28;2.00;;;1.30;;
17372;SDS011;8803;48.116;11.590;2024-02-14T09:31:34;1.53;;;1.20;;
17372;SDS011;8803;48.116;11.590;2024-02-14T09:33:47;1.77;;;1.30;;
17372;SDS011;8803;48.116;11.590;2024-02-14T09:35:54;1.47;;;1.00;;
17372;SDS011;8803;48.116;11.590;2024-02-14T09:38:07;2.20;;;1.40;;
17372;SDS011;8803;48.116;11.590;2024-02-14T09:40:13;1.93;;;1.20;;
17372;SDS011;8803;48.116;11.590;2024-02-14T09:42:19;2.80;;;1.30;;
17372;SDS011;8803;48.116;11.590;2024-02-14T09:46:39;1.50;;;1.00;;
17372;SDS011;8803;48.116;11.590;2024-02-14T09:48:45;1.53;;;1.17;;
17372;SDS011;8803;48.116;11.590;2024-02-14T09:50:59;1.63;;;1.33;;
17372;SDS011;8803;48.116;11.590;2024-02-14T09:53:05;2.50;;;1.20;;
17372;SDS011;8803;48.116;11.590;2024-02-14T09:55:19;2.03;;;1.30;;
17372;SDS011;8803;48.116;11.590;2024-02-14T09:57:26;1.70;;;1.20;;
17372;SDS011;8803;48.116;11.590;2024-02-14T09:59:41;1.30;;;1.17;;
17372;SDS011;8803;48.116;11.590;2024-02-14T10:01:47;1.87;;;1.50;;
17372;SDS011;8803;48.116;11.590;2024-02-14T10:04:00;2.00;;;1.60;;
17372;SDS011;8803;48.116;11.590;2024-02-14T10:06:06;2.00;;;1.27;;
17372;SDS011;8803;48.116;11.590;2024-02-14T10:08:19;2.37;;;1.40;;
17372;SDS011;8803;48.116;11.590;2024-02-14T10:12:37;1.50;;;1.20;;
17372;SDS011;8803;48.116;11.590;2024-02-14T10:14:42;2.17;;;1.60;;
17372;SDS011;8803;48.116;11.590;2024-02-14T10:16:56;4.40;;;3.60;;
17372;SDS011;8803;48.116;11.590;2024-02-14T10:19:01;4.53;;;2.93;;
17372;SDS011;8803;48.116;11.590;2024-02-14T10:21:15;2.60;;;1.93;;
17372;SDS011;8803;48.116;11.590;2024-02-14T10:23:21;2.53;;;1.70;;
17372;SDS011;8803;48.116;11.590;2024-02-14T10:25:35;2.13;;;1.93;;
17372;SDS011;8803;48.116;11.590;2024-02-14T10:27:40;2.30;;;1.50;;
17372;SDS011;8803;48.116;11.590;2024-02-14T10:29:55;2.57;;;1.10;;
17372;SDS011;8803;48.116;11.590;2024-02-14T10:32:00;1.53;;;1.20;;
17372;SDS011;8803;48.116;11.590;2024-02-14T10:34:16;1.57;;;1.17;;
17372;SDS011;8803;48.116;11.590;2024-02-14T10:36:23;1.90;;;1.70;;
17372;SDS011;8803;48.116;11.590;2024-02-14T10:38:36;2.40;;;1.43;;
17372;SDS011;8803;48.116;11.590;2024-02-14T10:40:42;1.47;;;1.33;;
17372;SDS011;8803;48.116;11.590;2024-02-14T10:42:58;1.60;;;1.10;;
17372;SDS011;8803;48.116;11.590;2024-02-14T10:45:09;1.87;;;1.10;;
17372;SDS011;8803;48.116;11.590;2024-02-14T10:47:24;1.80;;;1.00;;
17372;SDS011;8803;48.116;11.590;2024-02-14T10:49:30;1.30;;;0.90;;
17372;SDS011;8803;48.116;11.590;2024-02-14T10:51:43;1.40;;;1.27;;
17372;SDS011;8803;48.116;11.590;2024-02-14T10:53:50;1.93;;;1.70;;
17372;SDS011;8803;48.116;11.590;2024-02-14T10:56:07;1.20;;;1.00;;
17372;SDS011;8803;48.116;11.590;2024-02-14T10:58:12;1.17;;;1.00;;
17372;SDS011;8803;48.116;11.590;2024-02-14T11:00:25;1.50;;;0.93;;
17372;SDS011;8803;48.116;11.590;2024-02-14T11:02:33;1.33;;;0.93;;
17372;SDS011;8803;48.116;11.590;2024-02-14T11:04:46;1.10;;;0.90;;
17372;SDS011;8803;48.116;11.590;2024-02-14T11:06:54;1.13;;;0.90;;
17372;SDS011;8803;48.116;11.590;2024-02-14T11:09:07;1.07;;;0.80;;
17372;SDS011;8803;48.116;11.590;2024-02-14T11:11:16;1.30;;;0.80;;
17372;SDS011;8803;48.116;11.590;2024-02-14T11:13:30;1.03;;;0.90;;
17372;SDS011;8803;48.116;11.590;2024-02-14T11:15:38;0.90;;;0.80;;
17372;SDS011;8803;48.116;11.590;2024-02-14T11:17:51;1.13;;;0.70;;
17372;SDS011;8803;48.116;11.590;2024-02-14T11:19:58;0.73;;;0.70;;
17372;SDS011;8803;48.116;11.590;2024-02-14T11:22:12;1.00;;;0.67;;
17372;SDS011;8803;48.116;11.590;2024-02-14T11:24:20;0.93;;;0.80;;
17372;SDS011;8803;48.116;11.590;2024-02-14T11:26:37;1.37;;;1.00;;
17372;SDS011;8803;48.116;11.590;2024-02-14T11:28:49;1.60;;;0.83;;
17372;SDS011;8803;48.116;11.590;2024-02-14T11:31:07;0.93;;;0.73;;
17372;SDS011;8803;48.116;11.590;2024-02-14T11:33:18;0.90;;;0.80;;
17372;SDS011;8803;48.116;11.590;2024-02-14T11:35:32;0.83;;;0.70;;
17372;SDS011;8803;48.116;11.590;2024-02-14T11:37:36;1.70;;;0.67;;
17372;SDS011;8803;48.116;11.590;2024-02-14T11:40:11;1.13;;;0.70;;
17372;SDS011;8803;48.116;11.590;2024-02-14T11:42:16;1.30;;;0.90;;
17372;SDS011;8803;48.116;11.590;2024-02-14T11:44:29;0.67;;;0.67;;
17372;SDS011;8803;48.116;11.590;2024-02-14T11:46:35;0.80;;;0.77;;
17372;SDS011;8803;48.116;11.590;2024-02-14T11:48:48;1.40;;;1.10;;
17372;SDS011;8803;48.116;11.590;2024-02-14T11:50:55;6.93;;;3.30;;
17372;SDS011;8803;48.116;11.590;2024-02-14T11:53:08;3.37;;;1.60;;
17372;SDS011;8803;48.116;11.590;2024-02-14T11:55:16;2.47;;;1.40;;
17372;SDS011;8803;48.116;11.590;2024-02-14T11:57:30;1.20;;;0.90;;
17372;SDS011;8803;48.116;11.590;2024-02-14T11:59:35;1.70;;;0.80;;
17372;SDS011;8803;48.116;11.590;2024-02-14T12:01:48;1.70;;;0.80;;
17372;SDS011;8803;48.116;11.590;2024-02-14T12:03:55;1.30;;;1.00;;
17372;SDS011;8803;48.116;11.590;2024-02-14T12:06:08;1.40;;;0.90;;
17372;SDS011;8803;48.116;11.590;2024-02-14T12:08:15;2.20;;;1.37;;
17372;SDS011;8803;48.116;11.590;2024-02-14T12:10:32;2.07;;;1.53;;
17372;SDS011;8803;48.116;11.590;2024-02-14T12:12:37;1.90;;;1.37;;
17372;SDS011;8803;48.116;11.590;2024-02-14T12:14:52;2.23;;;1.53;;
17372;SDS011;8803;48.116;11.590;2024-02-14T12:16:59;1.80;;;1.40;;
17372;SDS011;8803;48.116;11.590;2024-02-14T12:21:20;1.57;;;1.27;;
17372;SDS011;8803;48.116;11.590;2024-02-14T12:23:26;1.47;;;0.90;;
17372;SDS011;8803;48.116;11.590;2024-02-14T12:25:39;1.67;;;0.80;;
17372;SDS011;8803;48.116;11.590;2024-02-14T12:27:49;1.13;;;0.90;;
17372;SDS011;8803;48.116;11.590;2024-02-14T12:30:05;1.30;;;0.80;;
17372;SDS011;8803;48.116;11.590;2024-02-14T12:32:17;1.10;;;0.70;;
17372;SDS011;8803;48.116;11.590;2024-02-14T12:34:30;1.07;;;0.90;;
17372;SDS011;8803;48.116;11.590;2024-02-14T12:36:37;1.00;;;0.83;;
17372;SDS011;8803;48.116;11.590;2024-02-14T12:38:50;1.77;;;1.40;;
17372;SDS011;8803;48.116;11.590;2024-02-14T12:40:56;2.87;;;1.90;;
17372;SDS011;8803;48.116;11.590;2024-02-14T12:43:09;2.23;;;1.47;;
17372;SDS011;8803;48.116;11.590;2024-02-14T12:45:14;1.80;;;0.80;;
17372;SDS011;8803;48.116;11.590;2024-02-14T12:47:28;1.10;;;0.80;;
17372;SDS011;8803;48.116;11.590;2024-02-14T12:49:34;0.90;;;0.80;;
17372;SDS011;8803;48.116;11.590;2024-02-14T12:51:47;5.00;;;0.77;;
17372;SDS011;8803;48.116;11.590;2024-02-14T12:53:52;0.83;;;0.70;;
17372;SDS011;8803;48.116;11.590;2024-02-14T12:56:09;1.13;;;0.70;;
17372;SDS011;8803;48.116;11.590;2024-02-14T12:58:14;1.27;;;0.70;;
17372;SDS011;8803;48.116;11.590;2024-02-14T13:02:40;1.33;;;0.87;;
17372;SDS011;8803;48.116;11.590;2024-02-14T13:04:45;1.20;;;1.10;;
17372;SDS011;8803;48.116;11.590;2024-02-14T13:06:58;1.17;;;1.00;;
17372;SDS011;8803;48.116;11.590;2024-02-14T13:09:03;1.10;;;1.00;;
17372;SDS011;8803;48.116;11.590;2024-02-14T13:11:16;1.07;;;0.90;;
17372;SDS011;8803;48.116;11.590;2024-02-14T13:13:21;0.80;;;0.80;;
17372;SDS011;8803;48.116;11.590;2024-02-14T13:15:26;1.63;;;0.80;;
17372;SDS011;8803;48.116;11.590;2024-02-14T13:17:31;1.33;;;0.80;;
17372;SDS011;8803;48.116;11.590;2024-02-14T13:19:45;1.20;;;0.70;;
17372;SDS011;8803;48.116;11.590;2024-02-14T13:21:50;0.70;;;0.70;;
17372;SDS011;8803;48.116;11.590;2024-02-14T13:24:07;1.57;;;0.90;;
17372;SDS011;8803;48.116;11.590;2024-02-14T13:26:13;0.97;;;0.70;;